Pagina principale
METAR-TAF:

METAR-TAF

Aeroporti :

Aeroporto Internazionale di Hato

Curaçao, Antille olandesi

latitudine: 12-12N, longitudine: 068-58W, altezza: 9 m

Osservazione

Il bollettino è stato emesso 24 minuti fa, alle 02:00 UTC
Vento 13 kt da est/sud-est
Temperature 27°C
Umidità 79%
Pressione 1014 hPa
Visibilità 10 km o più
nessuna nube inferiore a 1500 m e nessun cumulonembo

METAR: TNCC 210200Z 11013KT CAVOK 27/23 Q1014 NOSIG

Ora: 22:24 (02:24 UTC)

Previsione

Il bollettino è stato emesso 4 ore e 39 minuti fa, alle 21:45 UTC
Previsione valida dal 21 alle 00 UTC al 21 alle 24 UTC
Vento 13 kt da est/sud-est
Visibilità 10 km o più
Poco nuvoloso ad un'altezza di 1800 ft
Evoluzione graduale
dal 21 alle 14 UTC al 21 alle 16 UTC
Vento 14 kt da est con raffiche fino a 24 kt

TAF: TNCC 202145Z 2100/2124 11013KT 9999 FEW018 BECMG 2114/2116 10014G24KT

Osservazioni e previsioni meteorologiche di più di 4000 aeroporti (messaggi METAR e TAF).

Le stazioni disponibili sono rappresentate dai dischi gialli e rossi sulla carta.

Puntare il mouse per vedere il nome della stazione.

Clicca sopra per visualizzare le osservazioni e previsioni meteorologiche.

Per cambiare la mappa : fare clic sui pulsanti verdi con una croce nera per ingrandire, il pulsante verde con un trattino per diminuire, o sulla freccia verde per le mappe adiacenti.


METAR-TAF: